Airport ICAO


13:45 UTC

11°C

Scattered clouds


An affordable passengers' Moving Map for your aircraft. Made for the iPad and the iPhone
More information here

EGKA Shoreham


Shoreham By Sea UNITED KINGDOM   VFR


METAR EGKA 231320Z 34011KT 9999 SCT022 11/09 Q1019 0h25min

TAF EGKA 231054Z 2312/2318 35012KT 9999 SCT030 TEMPO 2312/2314 35018G28KT 8000 RA BKN008 2h51min





NOTAMS

OPEN